EBDT 200025Z AUTO VRB02KT 3900 BR OVC070/// 13/12 Q1022 GRN EBDT 200010Z AUTO VRB02KT 3600 BR OVC070/// 13/12 Q1022 YLO EBDT 200003Z AUTO VRB01KT 4400 BKN070/// 13/12 Q1022 GRN EBDT 192355Z AUTO VRB01KT 6000 BKN070/// 13/13 Q1022 WHT EBDT 192353Z AUTO VRB01KT 5000 BKN070/// 13/12 Q1022 WHT EBDT 192341Z AUTO VRB01KT 4900 SCT070/// 13/12 Q1022 GRN EBDT 192325Z AUTO VRB01KT 6000 NCD 14/13 Q1022 WHT EBDT 192255Z AUTO VRB01KT 7000 NCD 13/12 Q1022 WHT EBDT 192225Z AUTO VRB02KT 8000 NCD 13/12 Q1022 BLU EBDT 192155Z AUTO 33004KT 9999 NCD 14/12 Q1022 BLU EBDT 192125Z AUTO 33006KT 9999 NCD 14/12 Q1022 BLU EBDT 192055Z AUTO 32006KT 9999 NCD 14/11 Q1021 BLU EBDT 192025Z AUTO 32005KT 9999 NCD 15/12 Q1022 BLU EBDT 191955Z AUTO 32004KT 9999 NCD 15/13 Q1021 BLU EBDT 191925Z AUTO 32005KT 9999 NCD 16/13 Q1021 BLU EBDT 191855Z AUTO 33005KT 9999 NCD 17/14 Q1021 BLU EBDT 191825Z AUTO 33008KT 9999 FEW017/// 18/15 Q1021 BLU EBDT 191755Z AUTO 33011KT 9999 NCD 18/15 Q1020 BLU EBDT 191725Z AUTO 32009KT 9999 FEW028/// 20/16 Q1020 BLU EBDT 191655Z AUTO 30009KT 9999 SCT027/// 21/15 Q1020 BLU EBDT 191625Z AUTO 27008KT 9999 FEW028/// BKN039/// 22/16 Q1019 BLU EBDT 191555Z AUTO 29009KT 9999 SCT029/// SCT068/// 23/16 Q1019 BLU EBDT 191525Z AUTO 28006KT 9999 FEW027/// SCT031/// BKN061/// 22/15 Q1019 BLU EBDT 191455Z AUTO 29010KT 9999 BKN032/// BKN130/// 21/15 Q1019 BLU EBDT 191425Z AUTO 28007KT 9999 FEW085/// BKN120/// 22/16 Q1019 BLU EBDT 191355Z AUTO 31004KT 9999 FEW081/// 21/16 Q1018 BLU EBDT 191325Z AUTO VRB01KT 9999 BKN084/// BKN160/// BKN200/// 19/16 Q1018 BLU EBDT 191255Z AUTO 36004KT 9999 -RA FEW032/// BKN064/// 19/17 Q1018 BLU EBDT 191225Z AUTO 32013KT 9999 BKN059/// BKN150/// 20/16 Q1018 BLU EBDT 191155Z AUTO 32012KT 9999 -RA FEW024/// 19/16 Q1018 BLU EBDT 191125Z AUTO 29023G40KT 9999 -RA SCT038/// BKN071/// BKN095/// 18/15 Q1018 BLU EBDT 191118Z AUTO 25014G42KT 7000 -RA FEW053/// SCT072/// 22/14 Q1018 WHT EBDT 191055Z AUTO 20009KT 9999 SCT150/// 27/16 Q1016 BLU EBDT 191025Z AUTO 16008KT 9999 SCT150/// 27/16 Q1015 BLU EBDT 190955Z AUTO 16007KT 9999 FEW074/// BKN160/// 26/16 Q1016 BLU EBDT 190855Z AUTO 15007KT 9999 SCT180/// 25/17 Q1016 BLU EBDT 190843Z AUTO 14009KT 9999 NCD 24/16 Q1016 BLU EBDT 190825Z AUTO 14006KT 5000 NCD 24/18 Q1016 WHT EBDT 190755Z AUTO 15006KT 9999 FEW190/// 23/18 Q1016 BLU EBDT 190725Z AUTO 12006KT 9999 FEW200/// 20/17 Q1016 BLU EBDT 190655Z AUTO 12005KT 9999 FEW044/// 19/16 Q1017 BLU EBDT 190625Z AUTO 14010KT 9999 FEW052/// OVC095/// 18/16 Q1016 BLU EBDT 190604Z AUTO 16004KT 7000 OVC078/// 17/17 Q1017 WHT EBDT 182255Z AUTO 09006KT 9999 NCD 21/15 Q1018 BLU EBDT 182225Z AUTO 07005KT 9999 NCD 21/15 Q1018 BLU EBDT 182155Z AUTO 06003KT 9999 FEW088/// 21/15 Q1018 BLU EBDT 182125Z AUTO 04003KT 9999 FEW089/// 21/15 Q1019 BLU EBDT 182055Z AUTO 03004KT 9999 FEW089/// 21/14 Q1019 BLU EBDT 182025Z AUTO 02004KT 9999 BKN088/// 21/14 Q1019 BLU EBDT 181955Z AUTO 35005KT 9999 BKN090/// 22/13 Q1019 BLU EBDT 181925Z AUTO 36003KT 9999 BKN090/// 23/13 Q1019 BLU EBDT 181855Z AUTO 34003KT 9999 FEW096/// 24/12 Q1019 BLU EBDT 181825Z AUTO VRB02KT 9999 NCD 25/12 Q1019 BLU EBDT 181755Z AUTO 35003KT 9999 NCD 26/12 Q1019 BLU EBDT 181725Z AUTO 01004KT 9999 NCD 26/11 Q1019 BLU EBDT 181655Z AUTO 02006KT 9999 FEW096/// 27/12 Q1019 BLU EBDT 181625Z AUTO 36004KT 9999 FEW096/// 26/12 Q1019 BLU EBDT 181555Z AUTO 33003KT 9999 FEW097/// 26/12 Q1020 BLU EBDT 181525Z AUTO 35003KT 9999 BKN099/// 26/12 Q1020 BLU EBDT 181455Z AUTO 31005KT 9999 FEW096/// 26/12 Q1020 BLU EBDT 181425Z AUTO 32004KT 9999 NCD 27/12 Q1020 BLU EBDT 181355Z AUTO 31006KT 9999 NCD 26/12 Q1020 BLU EBDT 181325Z AUTO 29007KT 9999 SCT069/// 26/13 Q1020 BLU EBDT 181255Z AUTO 31005KT 9999 SCT069/// 26/14 Q1021 BLU

METAR Messwerte "SCHAFFEN" EBDT

Zurück zur Übersicht

Ortsname
Ländercode / m ü. NN
Zeit Temperatur Taupunkt Rel.
Luftfeuchte
Luftdruck:
Altimeter
NN
Station
Wind in Beaufort
(Knoten)
Sichtweite
(Meter)
Wolken
(Meter über Grund)
Wettererscheinung
SCHAFFEN
BE 25
Fr 20.05. 02:25131294 %1022
1022
1019
Uml 1 (2)3900Bedeckt (2100)Nebeldunst
SCHAFFEN
BE 25
Fr 20.05. 02:10131294 %1022
1022
1019
Uml 1 (2)3600Bedeckt (2100)Nebeldunst
SCHAFFEN
BE 25
Fr 20.05. 02:03131294 %1022
1022
1019
Uml 1 (1)4400Stark bewölkt (2100) 
SCHAFFEN
BE 25
Fr 20.05. 01:551313100 %1022
1022
1019
Uml 1 (1)6000Stark bewölkt (2100) 
SCHAFFEN
BE 25
Fr 20.05. 01:53131294 %1022
1022
1019
Uml 1 (1)5000Stark bewölkt (2100) 
SCHAFFEN
BE 25
Fr 20.05. 01:41131294 %1022
1022
1019
Uml 1 (1)4900Wolkig (2100) 
SCHAFFEN
BE 25
Fr 20.05. 01:25141394 %1022
1022
1019
Uml 1 (1)6000  
SCHAFFEN
BE 25
Fr 20.05. 00:55131294 %1022
1022
1019
Uml 1 (1)7000  
SCHAFFEN
BE 25
Fr 20.05. 00:25131294 %1022
1022
1019
Uml 1 (2)8000  
SCHAFFEN
BE 25
Do 19.05. 23:55141288 %1022
1022
1019
NNW 2 (4)>= 10000  
SCHAFFEN
BE 25
Do 19.05. 23:25141288 %1022
1022
1019
NNW 2 (6)>= 10000  
SCHAFFEN
BE 25
Do 19.05. 22:55141182 %1021
1021
1018
NW 2 (6)>= 10000  
SCHAFFEN
BE 25
Do 19.05. 22:25151282 %1022
1022
1019
NW 2 (5)>= 10000  
SCHAFFEN
BE 25
Do 19.05. 21:55151388 %1021
1021
1018
NW 2 (4)>= 10000  
SCHAFFEN
BE 25
Do 19.05. 21:25161382 %1021
1021
1018
NW 2 (5)>= 10000  
SCHAFFEN
BE 25
Do 19.05. 20:55171482 %1021
1021
1018
NNW 2 (5)>= 10000  
SCHAFFEN
BE 25
Do 19.05. 20:25181583 %1021
1021
1018
NNW 3 (8)>= 10000Leicht bewölkt (520) 
SCHAFFEN
BE 25
Do 19.05. 19:55181583 %1020
1020
1017
NNW 4 (11)>= 10000  
SCHAFFEN
BE 25
Do 19.05. 19:25201678 %1020
1020
1017
NW 3 (9)>= 10000Leicht bewölkt (850) 
SCHAFFEN
BE 25
Do 19.05. 18:55211569 %1020
1020
1017
WNW 3 (9)>= 10000Wolkig (820) 
SCHAFFEN
BE 25
Do 19.05. 18:25221669 %1019
1019
1016
W 3 (8)>= 10000Stark bewölkt (1200)
Leicht bewölkt (850)
 
SCHAFFEN
BE 25
Do 19.05. 17:55231665 %1019
1019
1016
WNW 3 (9)>= 10000Wolkig (2100)
Wolkig (880)
 
SCHAFFEN
BE 25
Do 19.05. 17:25221565 %1019
1019
1016
W 2 (6)>= 10000Stark bewölkt (1900)
Wolkig (940)
Leicht bewölkt (820)
 
SCHAFFEN
BE 25
Do 19.05. 16:55211569 %1019
1019
1016
WNW 3 (10)>= 10000Stark bewölkt (4000)
Stark bewölkt (980)
 
SCHAFFEN
BE 25
Do 19.05. 16:25221669 %1019
1019
1016
W 3 (7)>= 10000Stark bewölkt (3700)
Leicht bewölkt (2600)
 
SCHAFFEN
BE 25
Do 19.05. 15:55211673 %1018
1018
1015
NW 2 (4)>= 10000Leicht bewölkt (2500) 
SCHAFFEN
BE 25
Do 19.05. 15:25191683 %1018
1018
1015
Uml 1 (1)>= 10000Stark bewölkt (6100)
Stark bewölkt (4900)
Stark bewölkt (2600)
 
SCHAFFEN
BE 25
Do 19.05. 14:55191788 %1018
1018
1015
N 2 (4)>= 10000Stark bewölkt (2000)
Leicht bewölkt (980)
Regen (schwach)
SCHAFFEN
BE 25
Do 19.05. 14:25201678 %1018
1018
1015
NW 4 (13)>= 10000Stark bewölkt (4600)
Stark bewölkt (1800)
 
SCHAFFEN
BE 25
Do 19.05. 13:55191683 %1018
1018
1015
NW 4 (12)>= 10000Leicht bewölkt (730)Regen (schwach)
SCHAFFEN
BE 25
Do 19.05. 13:25181583 %1018
1018
1015
WNW 6 (23) - 8 (40)>= 10000Stark bewölkt (2900)
Stark bewölkt (2200)
Wolkig (1200)
Regen (schwach)
SCHAFFEN
BE 25
Do 19.05. 13:18221460 %1018
1018
1015
WSW 4 (14) - 9 (42)7000Wolkig (2200)
Leicht bewölkt (1600)
Regen (schwach)
SCHAFFEN
BE 25
Do 19.05. 12:55271651 %1016
1016
1013
SSW 3 (9)>= 10000Wolkig (4600) 
SCHAFFEN
BE 25
Do 19.05. 12:25271651 %1015
1015
1012
SSO 3 (8)>= 10000Wolkig (4600) 
SCHAFFEN
BE 25
Do 19.05. 11:55261654 %1016
1016
1013
SSO 3 (7)>= 10000Stark bewölkt (4900)
Leicht bewölkt (2300)
 
SCHAFFEN
BE 25
Do 19.05. 10:55251761 %1016
1016
1013
SSO 3 (7)>= 10000Wolkig (5500) 
SCHAFFEN
BE 25
Do 19.05. 10:43241661 %1016
1016
1013
SO 3 (9)>= 10000  
SCHAFFEN
BE 25
Do 19.05. 10:25241869 %1016
1016
1013
SO 2 (6)5000  
SCHAFFEN
BE 25
Do 19.05. 09:55231873 %1016
1016
1013
SSO 2 (6)>= 10000Leicht bewölkt (5800) 
SCHAFFEN
BE 25
Do 19.05. 09:25201783 %1016
1016
1013
OSO 2 (6)>= 10000Leicht bewölkt (6100) 
SCHAFFEN
BE 25
Do 19.05. 08:55191683 %1017
1017
1014
OSO 2 (5)>= 10000Leicht bewölkt (1300) 
SCHAFFEN
BE 25
Do 19.05. 08:25181688 %1016
1016
1013
SO 3 (10)>= 10000Bedeckt (2900)
Leicht bewölkt (1600)
 
SCHAFFEN
BE 25
Do 19.05. 08:041717100 %1017
1017
1014
SSO 2 (4)7000Bedeckt (2400) 
SCHAFFEN
BE 25
Do 19.05. 00:55211569 %1018
1018
1015
O 2 (6)>= 10000  
SCHAFFEN
BE 25
Do 19.05. 00:25211569 %1018
1018
1015
ONO 2 (5)>= 10000  
SCHAFFEN
BE 25
Mi 18.05. 23:55211569 %1018
1018
1015
ONO 2 (3)>= 10000Leicht bewölkt (2700) 
SCHAFFEN
BE 25
Mi 18.05. 23:25211569 %1019
1019
1016
NO 2 (3)>= 10000Leicht bewölkt (2700) 
SCHAFFEN
BE 25
Mi 18.05. 22:55211464 %1019
1019
1016
NNO 2 (4)>= 10000Leicht bewölkt (2700) 
SCHAFFEN
BE 25
Mi 18.05. 22:25211464 %1019
1019
1016
NNO 2 (4)>= 10000Stark bewölkt (2700) 
SCHAFFEN
BE 25
Mi 18.05. 21:55221357 %1019
1019
1016
N 2 (5)>= 10000Stark bewölkt (2700) 
SCHAFFEN
BE 25
Mi 18.05. 21:25231353 %1019
1019
1016
N 2 (3)>= 10000Stark bewölkt (2700) 
SCHAFFEN
BE 25
Mi 18.05. 20:55241247 %1019
1019
1016
NNW 2 (3)>= 10000Leicht bewölkt (2900) 
SCHAFFEN
BE 25
Mi 18.05. 20:25251244 %1019
1019
1016
Uml 1 (2)>= 10000  
SCHAFFEN
BE 25
Mi 18.05. 19:55261242 %1019
1019
1016
N 2 (3)>= 10000  
SCHAFFEN
BE 25
Mi 18.05. 19:25261139 %1019
1019
1016
N 2 (4)>= 10000  
SCHAFFEN
BE 25
Mi 18.05. 18:55271239 %1019
1019
1016
NNO 2 (6)>= 10000Leicht bewölkt (2900) 
SCHAFFEN
BE 25
Mi 18.05. 18:25261242 %1019
1019
1016
N 2 (4)>= 10000Leicht bewölkt (2900) 
SCHAFFEN
BE 25
Mi 18.05. 17:55261242 %1020
1020
1017
NNW 2 (3)>= 10000Leicht bewölkt (3000) 
SCHAFFEN
BE 25
Mi 18.05. 17:25261242 %1020
1020
1017
N 2 (3)>= 10000Stark bewölkt (3000) 
SCHAFFEN
BE 25
Mi 18.05. 16:55261242 %1020
1020
1017
NW 2 (5)>= 10000Leicht bewölkt (2900) 
SCHAFFEN
BE 25
Mi 18.05. 16:25271239 %1020
1020
1017
NW 2 (4)>= 10000  
SCHAFFEN
BE 25
Mi 18.05. 15:55261242 %1020
1020
1017
NW 2 (6)>= 10000  
SCHAFFEN
BE 25
Mi 18.05. 15:25261345 %1020
1020
1017
WNW 3 (7)>= 10000Wolkig (2100) 
SCHAFFEN
BE 25
Mi 18.05. 14:55261448 %1021
1021
1018
NW 2 (5)>= 10000Wolkig (2100) 

Altimeter: Einstellung am Altimeter (Höhenmesser), die Höhe 0 muss auf diesen Luftdruckwert zeigen, damit das Gerät die Stationshöhe richtig anzeigt.

NN: Luftdruck reduziert auf "Normal Null", auf Meereshöhe, dieser von der Temperatur abhängige Wert wird bisweilen unkorrekt einfach als "Luftdruck" bezeichnet. Eigentlich nur eine fiktive Größe, die es erlaubt, Stationen auf unterschiedlichen Höhen miteinander zu vergleichen.

Station: Realer Luftdruck an der Station.